createdAt,value
2022-10-23T00:01:37.883Z,86.80
2022-10-23T00:04:07.658Z,86.70
2022-10-23T00:06:35.574Z,86.11
2022-10-23T00:09:05.315Z,86.33
2022-10-23T00:11:32.739Z,85.92
2022-10-23T00:14:01.534Z,86.67
2022-10-23T00:16:29.109Z,85.97
2022-10-23T00:18:56.204Z,85.71
2022-10-23T00:21:23.867Z,86.29
2022-10-23T00:23:50.698Z,85.34
2022-10-23T00:26:17.670Z,85.12
2022-10-23T00:28:46.902Z,85.28
2022-10-23T00:31:13.976Z,85.26
2022-10-23T00:33:41.941Z,84.92
2022-10-23T00:36:11.210Z,84.62
2022-10-23T00:38:38.722Z,85.38
2022-10-23T00:41:06.970Z,85.20
2022-10-23T00:43:35.110Z,85.52
2022-10-23T00:46:02.306Z,85.31
2022-10-23T00:48:29.491Z,85.10
2022-10-23T00:50:56.884Z,85.92
2022-10-23T00:53:25.088Z,86.17
2022-10-23T00:55:55.039Z,85.55
2022-10-23T00:58:23.828Z,85.27
2022-10-23T01:00:53.541Z,85.05
2022-10-23T01:03:28.317Z,84.90
2022-10-23T01:06:18.710Z,84.19
2022-10-23T01:08:58.128Z,84.25
2022-10-23T01:11:36.409Z,84.51
2022-10-23T01:14:18.214Z,85.22
2022-10-23T01:17:09.631Z,84.21
2022-10-23T01:19:56.527Z,84.78
2022-10-23T01:23:11.908Z,84.63
2022-10-23T01:26:02.819Z,85.63
2022-10-23T01:28:40.089Z,86.89
2022-10-23T01:31:14.451Z,87.86
2022-10-23T01:33:47.296Z,89.46
2022-10-23T01:36:21.908Z,89.47
2022-10-23T01:39:09.527Z,89.58
2022-10-23T01:42:08.859Z,89.63
2022-10-23T01:44:42.087Z,91.00
2022-10-23T01:47:11.873Z,91.70
2022-10-23T01:50:13.433Z,91.95
2022-10-23T01:52:43.351Z,92.06
2022-10-23T01:55:12.626Z,91.81
2022-10-23T01:57:42.133Z,91.44
2022-10-23T02:00:13.415Z,90.99
2022-10-23T02:03:08.206Z,91.02
2022-10-23T02:05:35.667Z,90.45
2022-10-23T02:08:04.687Z,90.32
2022-10-23T02:10:41.793Z,90.46
2022-10-23T02:13:38.202Z,89.51
2022-10-23T02:16:31.379Z,89.49
2022-10-23T02:19:10.479Z,88.81
2022-10-23T02:21:46.327Z,88.76
2022-10-23T02:24:16.382Z,90.05
2022-10-23T02:26:57.993Z,90.19
2022-10-23T02:29:39.710Z,89.25
2022-10-23T02:32:10.127Z,87.72
2022-10-23T02:34:37.424Z,87.81
2022-10-23T02:37:04.739Z,87.10
2022-10-23T02:39:31.582Z,86.82
2022-10-23T02:42:15.003Z,86.62
2022-10-23T02:44:43.940Z,86.43
2022-10-23T02:47:13.823Z,86.59
2022-10-23T02:50:24.414Z,86.06
2022-10-23T02:53:13.740Z,85.71
2022-10-23T02:55:52.738Z,85.41
2022-10-23T02:58:27.523Z,84.86
2022-10-23T03:01:22.731Z,84.61
2022-10-23T03:03:56.886Z,83.68
2022-10-23T03:06:24.601Z,83.33
2022-10-23T03:09:06.137Z,82.97
2022-10-23T03:11:33.014Z,82.86
2022-10-23T03:14:00.250Z,83.37
2022-10-23T03:16:27.347Z,82.61
2022-10-23T03:18:55.307Z,82.89
2022-10-23T03:21:22.943Z,83.41
2022-10-23T03:23:52.821Z,83.98
2022-10-23T03:26:27.469Z,84.30
2022-10-23T03:28:54.473Z,84.23
2022-10-23T03:31:22.891Z,84.80
2022-10-23T03:33:55.101Z,84.82
2022-10-23T03:36:22.243Z,84.82
2022-10-23T03:38:49.540Z,84.18
2022-10-23T03:41:16.325Z,83.52
2022-10-23T03:43:43.775Z,82.47
2022-10-23T03:46:13.061Z,84.01
2022-10-23T03:48:39.878Z,83.86
2022-10-23T03:51:07.038Z,83.23
2022-10-23T03:53:34.564Z,83.61
2022-10-23T03:56:03.941Z,83.66
2022-10-23T03:58:31.713Z,83.89
2022-10-23T04:00:58.826Z,83.94
2022-10-23T04:03:27.067Z,84.27
2022-10-23T04:05:53.909Z,82.20
2022-10-23T04:08:22.374Z,81.33
2022-10-23T04:10:52.349Z,80.54
2022-10-23T04:13:24.555Z,78.13
2022-10-23T04:15:52.943Z,76.54
2022-10-23T04:18:20.909Z,74.93
2022-10-23T04:20:49.501Z,72.26
2022-10-23T04:23:17.270Z,70.08
2022-10-23T04:28:33.271Z,66.75
2022-10-23T04:31:00.152Z,65.53
2022-10-23T04:33:27.250Z,64.02
2022-10-23T04:35:54.046Z,62.12
2022-10-23T04:38:20.977Z,59.94
2022-10-23T04:40:49.758Z,58.64
2022-10-23T04:43:20.741Z,57.59
2022-10-23T04:45:49.286Z,57.73
2022-10-23T04:48:16.242Z,57.22
2022-10-23T04:51:15.128Z,56.36
2022-10-23T04:54:00.880Z,56.29
2022-10-23T04:56:46.323Z,55.88
2022-10-23T04:59:18.894Z,56.18
2022-10-23T05:01:47.365Z,54.70
2022-10-23T05:04:14.447Z,55.16
2022-10-23T05:07:17.062Z,54.22
2022-10-23T05:10:01.759Z,53.44
2022-10-23T05:12:37.422Z,53.13
2022-10-23T05:15:04.811Z,53.11
2022-10-23T05:17:41.964Z,53.08
2022-10-23T05:20:15.037Z,53.38
2022-10-23T05:22:44.184Z,53.64
2022-10-23T05:25:13.695Z,53.99
2022-10-23T05:27:45.840Z,53.48
2022-10-23T05:30:14.673Z,52.96
2022-10-23T05:32:42.077Z,52.88
2022-10-23T05:35:13.524Z,52.62
2022-10-23T05:37:43.339Z,52.90
2022-10-23T05:40:14.689Z,53.18
2022-10-23T05:42:43.103Z,53.61
2022-10-23T05:45:13.100Z,53.75
2022-10-23T05:48:10.602Z,54.18
2022-10-23T05:51:20.399Z,54.69
2022-10-23T05:53:58.679Z,55.78
2022-10-23T05:56:46.106Z,56.65
2022-10-23T05:59:42.100Z,57.06
2022-10-23T06:02:26.989Z,57.88
2022-10-23T06:05:00.794Z,58.68
2022-10-23T06:07:46.267Z,59.54
2022-10-23T06:10:13.782Z,59.75
2022-10-23T06:12:44.484Z,60.37
2022-10-23T06:15:15.197Z,61.33
2022-10-23T06:18:00.895Z,61.68
2022-10-23T06:20:28.970Z,62.37
2022-10-23T06:23:13.845Z,62.72
2022-10-23T06:25:59.487Z,63.06
2022-10-23T06:28:37.242Z,63.83
2022-10-23T06:31:09.214Z,64.19
2022-10-23T06:33:36.079Z,64.81
2022-10-23T06:36:06.391Z,65.38
2022-10-23T06:38:37.735Z,66.21
2022-10-23T06:41:05.270Z,66.89
2022-10-23T06:43:36.343Z,66.99
2022-10-23T06:46:26.997Z,66.68
2022-10-23T06:49:13.143Z,66.97
2022-10-23T06:51:46.221Z,66.93
2022-10-23T06:54:14.652Z,66.70
2022-10-23T06:56:44.307Z,66.40
2022-10-23T06:59:11.899Z,66.09
2022-10-23T07:01:39.396Z,65.76
2022-10-23T07:04:07.417Z,65.73
2022-10-23T07:06:34.359Z,65.50
2022-10-23T07:09:01.478Z,65.48
2022-10-23T07:11:57.088Z,65.37
2022-10-23T07:14:33.816Z,65.55
2022-10-23T07:17:02.927Z,65.34
2022-10-23T07:19:29.926Z,65.55
2022-10-23T07:21:58.441Z,65.32
2022-10-23T07:24:57.415Z,64.55
2022-10-23T07:27:28.535Z,64.07
2022-10-23T07:29:57.382Z,63.05
2022-10-23T07:32:28.800Z,62.82
2022-10-23T07:35:21.504Z,62.67
2022-10-23T07:38:07.875Z,62.18
2022-10-23T07:40:38.448Z,61.37
2022-10-23T07:43:11.314Z,58.71
2022-10-23T07:45:38.181Z,58.10
2022-10-23T07:48:16.757Z,56.17
2022-10-23T07:51:08.595Z,55.82
2022-10-23T07:53:40.175Z,55.32
2022-10-23T07:56:21.678Z,53.88
2022-10-23T07:59:15.023Z,53.22
2022-10-23T08:01:50.551Z,53.54
2022-10-23T08:04:19.785Z,53.59
2022-10-23T08:07:06.849Z,53.20
2022-10-23T08:09:40.110Z,53.22
2022-10-23T08:12:08.120Z,52.96
2022-10-23T08:14:35.247Z,53.51
2022-10-23T08:20:08.064Z,53.56
2022-10-23T08:22:40.934Z,53.47
2022-10-23T08:25:09.720Z,53.93
2022-10-23T08:27:36.784Z,53.25
2022-10-23T08:30:05.046Z,53.20
2022-10-23T08:32:31.979Z,53.13
2022-10-23T08:35:00.151Z,52.92
2022-10-23T08:37:30.239Z,52.33
2022-10-23T08:39:57.143Z,52.05
2022-10-23T08:42:42.151Z,51.63
2022-10-23T08:45:28.807Z,51.42
2022-10-23T08:48:13.810Z,51.18
2022-10-23T08:51:11.652Z,51.31
2022-10-23T08:54:04.119Z,51.36
2022-10-23T08:56:34.779Z,50.85
2022-10-23T08:59:20.543Z,50.70
2022-10-23T09:01:52.610Z,50.29
2022-10-23T09:04:19.715Z,50.12
2022-10-23T09:07:01.564Z,48.83
2022-10-23T09:09:47.023Z,48.13
2022-10-23T09:12:17.706Z,48.17
2022-10-23T09:14:56.445Z,47.86
2022-10-23T09:17:32.299Z,46.78
2022-10-23T09:20:25.213Z,47.26
2022-10-23T09:22:59.702Z,47.18
2022-10-23T09:25:34.138Z,46.95
2022-10-23T09:28:05.240Z,47.02
2022-10-23T09:30:32.812Z,47.28
2022-10-23T09:33:01.057Z,46.69
2022-10-23T09:35:30.675Z,45.85
2022-10-23T09:37:58.331Z,46.13
2022-10-23T09:40:42.170Z,45.41
2022-10-23T09:43:18.754Z,45.15
2022-10-23T09:45:57.398Z,44.35
2022-10-23T09:48:25.233Z,44.12
2022-10-23T09:50:58.502Z,43.52
2022-10-23T09:53:50.405Z,42.64
2022-10-23T09:56:24.736Z,42.67
2022-10-23T09:59:13.615Z,42.38
2022-10-23T10:01:58.429Z,42.55
2022-10-23T10:04:54.760Z,41.19
2022-10-23T10:07:32.216Z,40.78
2022-10-23T10:10:01.651Z,40.83
2022-10-23T10:12:43.548Z,41.33
2022-10-23T10:15:32.644Z,40.82
2022-10-23T10:18:16.120Z,39.91
2022-10-23T10:20:45.566Z,39.31
2022-10-23T10:23:15.219Z,37.96
2022-10-23T10:26:03.767Z,37.83
2022-10-23T10:28:39.480Z,37.33
2022-10-23T10:31:30.932Z,37.35
2022-10-23T10:33:57.694Z,36.87
2022-10-23T10:36:33.346Z,36.05
2022-10-23T10:39:03.385Z,36.85
2022-10-23T10:41:50.815Z,36.33
2022-10-23T10:44:46.796Z,36.45
2022-10-23T10:47:44.721Z,37.44
2022-10-23T10:50:25.167Z,36.27
2022-10-23T10:53:08.715Z,36.35
2022-10-23T10:55:42.443Z,36.03
2022-10-23T10:58:25.581Z,36.36
2022-10-23T11:00:59.367Z,35.97
2022-10-23T11:03:46.395Z,35.92
2022-10-23T11:06:16.855Z,35.32
2022-10-23T11:08:57.317Z,35.63
2022-10-23T11:11:38.020Z,35.29
2022-10-23T11:14:05.258Z,35.65
2022-10-23T11:16:37.778Z,35.64
2022-10-23T11:19:29.346Z,36.12
2022-10-23T11:22:09.960Z,36.11
2022-10-23T11:24:50.082Z,36.30
2022-10-23T11:27:33.563Z,36.18
2022-10-23T11:30:21.699Z,35.72
2022-10-23T11:32:57.617Z,35.53
2022-10-23T11:35:41.553Z,36.37
2022-10-23T11:38:24.232Z,36.19
2022-10-23T11:40:56.489Z,36.00
2022-10-23T11:43:33.569Z,36.20
2022-10-23T11:46:14.586Z,36.35
2022-10-23T11:48:44.351Z,35.58
2022-10-23T11:51:33.686Z,35.92
2022-10-23T11:54:15.376Z,35.24
2022-10-23T11:57:10.731Z,35.02
2022-10-23T11:59:49.488Z,35.69
2022-10-23T12:02:32.486Z,35.38
2022-10-23T12:05:07.395Z,36.03
2022-10-23T12:07:37.912Z,35.98
2022-10-23T12:10:17.867Z,35.49
2022-10-23T12:12:57.225Z,35.13
2022-10-23T12:15:24.919Z,34.84
2022-10-23T12:18:07.562Z,34.98
2022-10-23T12:20:46.691Z,34.45
2022-10-23T12:23:37.880Z,34.47
2022-10-23T12:26:07.483Z,34.51
2022-10-23T12:28:55.546Z,35.02
2022-10-23T12:31:31.141Z,34.42
2022-10-23T12:34:30.751Z,34.09
2022-10-23T12:37:25.426Z,34.64
2022-10-23T12:39:55.682Z,34.68
2022-10-23T12:42:25.118Z,34.73
2022-10-23T12:45:24.176Z,34.78
2022-10-23T12:47:52.379Z,35.02
2022-10-23T12:50:24.844Z,33.79
2022-10-23T12:52:56.327Z,34.51
2022-10-23T12:55:25.658Z,34.70
2022-10-23T12:57:54.730Z,34.54
2022-10-23T13:00:24.545Z,34.53
2022-10-23T13:02:59.111Z,34.05
2022-10-23T13:05:27.225Z,33.77
2022-10-23T13:07:54.602Z,33.85
2022-10-23T13:10:36.739Z,33.66
2022-10-23T13:13:08.026Z,34.00
2022-10-23T13:15:40.507Z,34.29
2022-10-23T13:18:09.133Z,34.24
2022-10-23T13:20:38.759Z,34.52
2022-10-23T13:23:10.976Z,33.58
2022-10-23T13:25:39.765Z,34.05
2022-10-23T13:28:15.351Z,33.42
2022-10-23T13:30:48.592Z,33.27
2022-10-23T13:33:21.486Z,32.81
2022-10-23T13:36:06.483Z,33.04
2022-10-23T13:38:59.826Z,32.58
2022-10-23T13:41:28.923Z,33.07
2022-10-23T13:43:55.754Z,33.36
2022-10-23T13:46:27.683Z,33.72
2022-10-23T13:48:54.528Z,33.76
2022-10-23T13:51:23.998Z,33.87
2022-10-23T13:53:52.694Z,33.61
2022-10-23T13:56:21.789Z,33.48
2022-10-23T13:58:49.136Z,33.73
2022-10-23T14:01:27.657Z,33.86
2022-10-23T14:03:55.142Z,34.00
2022-10-23T14:06:22.294Z,33.76
2022-10-23T14:08:49.312Z,34.34
2022-10-23T14:11:18.498Z,35.06
2022-10-23T14:13:46.221Z,35.24
2022-10-23T14:16:15.160Z,35.75
2022-10-23T14:18:41.980Z,36.08
2022-10-23T14:21:10.847Z,36.16
2022-10-23T14:23:37.518Z,36.55
2022-10-23T14:26:05.526Z,37.42
2022-10-23T14:28:32.882Z,38.27
2022-10-23T14:31:07.443Z,39.01
2022-10-23T14:33:34.247Z,39.37
2022-10-23T14:36:01.176Z,39.71
2022-10-23T14:38:28.346Z,40.09
2022-10-23T14:40:55.182Z,40.55
2022-10-23T14:43:23.302Z,40.71
2022-10-23T14:45:50.174Z,40.69
2022-10-23T14:48:17.375Z,40.83
2022-10-23T14:50:49.278Z,40.85
2022-10-23T14:53:16.484Z,41.09
2022-10-23T14:55:43.352Z,41.37
2022-10-23T14:58:10.130Z,41.57
2022-10-23T15:00:36.915Z,41.66
2022-10-23T15:03:03.801Z,42.25
2022-10-23T15:05:30.659Z,42.21
2022-10-23T15:07:59.107Z,42.56
2022-10-23T15:10:25.896Z,42.68
2022-10-23T15:12:52.729Z,43.04
2022-10-23T15:15:19.570Z,43.13
2022-10-23T15:17:46.363Z,43.63
2022-10-23T15:20:13.244Z,43.79
2022-10-23T15:22:40.075Z,44.18
2022-10-23T15:25:07.724Z,44.47
2022-10-23T15:27:35.263Z,44.67
2022-10-23T15:30:02.162Z,45.16
2022-10-23T15:32:29.103Z,45.89
2022-10-23T15:34:58.339Z,46.02
2022-10-23T15:37:25.219Z,46.28
2022-10-23T15:39:52.567Z,47.03
2022-10-23T15:42:19.478Z,47.55
2022-10-23T15:44:46.233Z,47.69
2022-10-23T15:47:13.045Z,47.77
2022-10-23T15:49:40.066Z,47.82
2022-10-23T15:54:55.719Z,48.51
2022-10-23T15:57:22.514Z,48.86
2022-10-23T15:59:51.191Z,48.75
2022-10-23T16:02:18.238Z,49.13
2022-10-23T16:04:45.191Z,50.10
2022-10-23T16:07:12.026Z,49.40
2022-10-23T16:09:38.927Z,49.39
2022-10-23T16:12:06.057Z,49.60
2022-10-23T16:14:32.839Z,49.77
2022-10-23T16:16:59.704Z,49.90
2022-10-23T16:19:26.920Z,50.12
2022-10-23T16:21:54.069Z,50.31
2022-10-23T16:24:20.990Z,50.37
2022-10-23T16:26:53.195Z,50.64
2022-10-23T16:29:22.220Z,50.69
2022-10-23T16:31:49.212Z,50.61
2022-10-23T16:34:16.389Z,49.93
2022-10-23T16:36:43.410Z,49.95
2022-10-23T16:39:20.250Z,49.87
2022-10-23T16:42:05.730Z,50.07
2022-10-23T16:44:52.872Z,49.86
2022-10-23T16:47:19.979Z,49.50
2022-10-23T16:49:46.756Z,49.57
2022-10-23T16:52:13.584Z,49.94
2022-10-23T16:54:43.495Z,50.11
2022-10-23T16:57:10.282Z,50.23
2022-10-23T16:59:37.256Z,50.22
2022-10-23T17:02:04.243Z,50.63
2022-10-23T17:04:31.271Z,50.67
2022-10-23T17:06:58.158Z,50.88
2022-10-23T17:09:26.712Z,50.87
2022-10-23T17:11:54.284Z,50.98
2022-10-23T17:14:21.379Z,51.09
2022-10-23T17:16:52.359Z,50.99
2022-10-23T17:22:10.898Z,51.78
2022-10-23T17:24:39.442Z,52.27
2022-10-23T17:27:06.520Z,52.20
2022-10-23T17:29:33.672Z,52.13
2022-10-23T17:32:00.636Z,52.81
2022-10-23T17:34:27.522Z,53.08
2022-10-23T17:36:55.628Z,53.39
2022-10-23T17:39:28.260Z,54.10
2022-10-23T17:41:56.044Z,54.96
2022-10-23T17:44:23.454Z,54.31
2022-10-23T17:46:53.727Z,56.17
2022-10-23T17:49:22.111Z,55.60
2022-10-23T17:51:55.741Z,54.66
2022-10-23T17:54:24.402Z,55.30
2022-10-23T17:56:51.384Z,55.25
2022-10-23T17:59:19.790Z,54.98
2022-10-23T18:01:48.403Z,55.60
2022-10-23T18:04:18.152Z,55.15
2022-10-23T18:06:51.315Z,55.29
2022-10-23T18:09:19.248Z,55.38
2022-10-23T18:11:48.070Z,55.41
2022-10-23T18:14:16.314Z,55.51
2022-10-23T18:16:46.017Z,55.58
2022-10-23T18:19:14.393Z,55.18
2022-10-23T18:21:41.323Z,55.19
2022-10-23T18:24:08.592Z,55.20
2022-10-23T18:26:37.771Z,55.31
2022-10-23T18:29:07.781Z,55.43
2022-10-23T18:31:36.022Z,55.49
2022-10-23T18:34:08.387Z,55.48
2022-10-23T18:36:40.801Z,55.67
2022-10-23T18:39:11.956Z,55.69
2022-10-23T18:41:41.596Z,55.89
2022-10-23T18:44:09.575Z,55.81
2022-10-23T18:46:36.572Z,55.53
2022-10-23T18:49:04.304Z,55.47
2022-10-23T18:51:33.731Z,55.62
2022-10-23T18:54:05.592Z,55.66
2022-10-23T18:56:34.260Z,56.02
2022-10-23T18:59:02.750Z,55.75
2022-10-23T19:01:31.014Z,55.89
2022-10-23T19:04:00.070Z,56.02
2022-10-23T19:06:28.172Z,56.29
2022-10-23T19:08:55.120Z,56.23
2022-10-23T19:11:24.257Z,56.30
2022-10-23T19:13:51.246Z,56.93
2022-10-23T19:16:23.006Z,57.08
2022-10-23T19:18:54.896Z,58.08
2022-10-23T19:21:31.293Z,58.91
2022-10-23T19:24:07.704Z,59.52
2022-10-23T19:26:37.295Z,60.75
2022-10-23T19:29:07.899Z,60.81
2022-10-23T19:31:35.056Z,60.60
2022-10-23T19:34:01.833Z,60.90
2022-10-23T19:36:28.699Z,60.76
2022-10-23T19:38:55.550Z,63.90
2022-10-23T19:41:22.445Z,67.95
2022-10-23T19:43:49.237Z,63.67
2022-10-23T19:46:16.383Z,63.46
2022-10-23T19:48:44.679Z,64.09
2022-10-23T19:51:13.478Z,64.26
2022-10-23T19:53:42.115Z,64.38
2022-10-23T19:56:12.921Z,64.44
2022-10-23T19:58:41.641Z,64.93
2022-10-23T20:01:11.913Z,65.55
2022-10-23T20:03:41.823Z,66.35
2022-10-23T20:06:14.138Z,67.01
2022-10-23T20:08:41.965Z,67.52
2022-10-23T20:11:09.883Z,67.93
2022-10-23T20:13:36.881Z,67.92
2022-10-23T20:16:04.194Z,67.75
2022-10-23T20:18:31.722Z,68.61
2022-10-23T20:21:01.835Z,69.09
2022-10-23T20:23:28.740Z,69.52
2022-10-23T20:25:55.531Z,70.06
2022-10-23T20:28:22.367Z,70.69
2022-10-23T20:30:49.203Z,71.17
2022-10-23T20:33:15.979Z,71.87
2022-10-23T20:35:43.306Z,72.42
2022-10-23T20:38:10.216Z,72.55
2022-10-23T20:40:37.438Z,73.07
2022-10-23T20:43:05.491Z,73.22
2022-10-23T20:45:32.356Z,73.26
2022-10-23T20:47:59.188Z,73.17
2022-10-23T20:50:26.014Z,73.40
2022-10-23T20:52:53.000Z,74.16
2022-10-23T20:55:20.019Z,74.93
2022-10-23T20:57:59.555Z,75.38
2022-10-23T21:00:26.565Z,75.12
2022-10-23T21:02:53.613Z,75.17
2022-10-23T21:05:20.547Z,75.12
2022-10-23T21:07:47.334Z,74.80
2022-10-23T21:10:14.631Z,75.04
2022-10-23T21:12:41.645Z,74.74
2022-10-23T21:15:09.457Z,75.71
2022-10-23T21:17:39.041Z,76.14
2022-10-23T21:20:06.340Z,76.88
2022-10-23T21:22:33.308Z,77.62
2022-10-23T21:25:01.743Z,78.41
2022-10-23T21:27:28.615Z,78.90
2022-10-23T21:29:55.504Z,79.34
2022-10-23T21:32:22.495Z,80.11
2022-10-23T21:34:49.290Z,80.06
2022-10-23T21:37:16.087Z,80.29
2022-10-23T21:39:44.246Z,80.44
2022-10-23T21:42:12.466Z,80.62
2022-10-23T21:44:39.459Z,80.84
2022-10-23T21:47:12.656Z,80.68
2022-10-23T21:49:59.271Z,81.08
2022-10-23T21:52:40.397Z,81.54
2022-10-23T21:55:27.266Z,81.87
2022-10-23T21:58:09.247Z,82.56
2022-10-23T22:00:42.811Z,83.47
2022-10-23T22:03:09.653Z,83.53
2022-10-23T22:05:36.724Z,83.67
2022-10-23T22:08:03.641Z,84.24
2022-10-23T22:10:30.559Z,84.59
2022-10-23T22:12:57.358Z,84.71
2022-10-23T22:15:24.259Z,85.33
2022-10-23T22:17:51.151Z,85.52
2022-10-23T22:20:18.125Z,85.54
2022-10-23T22:22:45.006Z,85.45
2022-10-23T22:25:11.894Z,85.59
2022-10-23T22:27:38.681Z,85.17
2022-10-23T22:30:06.439Z,84.45
2022-10-23T22:32:35.416Z,84.92
2022-10-23T22:35:03.246Z,85.13
2022-10-23T22:37:30.171Z,85.04
2022-10-23T22:39:57.086Z,85.34
2022-10-23T22:42:23.860Z,85.30
2022-10-23T22:44:51.046Z,85.56
2022-10-23T22:47:18.005Z,85.93
2022-10-23T22:49:44.799Z,86.14
2022-10-23T22:52:12.187Z,86.05
2022-10-23T22:54:39.083Z,85.85
2022-10-23T22:57:07.292Z,85.75
2022-10-23T22:59:34.142Z,85.04
2022-10-23T23:02:01.107Z,84.77
2022-10-23T23:04:43.300Z,84.76
2022-10-23T23:07:12.598Z,85.01
2022-10-23T23:09:40.572Z,85.04
2022-10-23T23:12:09.245Z,84.93
2022-10-23T23:14:36.684Z,85.01
2022-10-23T23:17:05.451Z,84.92
2022-10-23T23:19:32.533Z,84.56
2022-10-23T23:22:00.195Z,85.17
2022-10-23T23:24:28.675Z,85.62
2022-10-23T23:26:55.539Z,85.87
2022-10-23T23:29:22.532Z,86.42
2022-10-23T23:31:49.362Z,87.07
2022-10-23T23:34:16.214Z,87.71
2022-10-23T23:36:44.671Z,87.84
2022-10-23T23:39:11.872Z,88.26
2022-10-23T23:41:38.770Z,88.59
2022-10-23T23:44:05.776Z,88.48
2022-10-23T23:46:32.604Z,88.64
2022-10-23T23:49:01.961Z,89.19
2022-10-23T23:51:29.449Z,89.39
2022-10-23T23:53:56.271Z,89.29
2022-10-23T23:56:23.377Z,89.48
2022-10-23T23:58:50.175Z,89.56
